sensor_id;sensor_type;location;lat;lon;timestamp;temperature;humidity
6740;DHT22;3407;49.882;10.920;2023-11-18T00:01:33;0.00;1.00
6740;DHT22;3407;49.882;10.920;2023-11-18T00:06:29;0.00;1.00
6740;DHT22;3407;49.882;10.920;2023-11-18T00:11:25;0.00;1.00
6740;DHT22;3407;49.882;10.920;2023-11-18T00:16:20;0.00;1.00
6740;DHT22;3407;49.882;10.920;2023-11-18T00:21:17;0.10;1.00
6740;DHT22;3407;49.882;10.920;2023-11-18T00:26:13;0.20;1.00
6740;DHT22;3407;49.882;10.920;2023-11-18T00:31:09;0.10;1.00
6740;DHT22;3407;49.882;10.920;2023-11-18T00:36:05;0.20;1.00
6740;DHT22;3407;49.882;10.920;2023-11-18T00:41:02;0.10;1.00
6740;DHT22;3407;49.882;10.920;2023-11-18T00:45:57;-0.20;1.00
6740;DHT22;3407;49.882;10.920;2023-11-18T00:50:54;-0.40;1.00
6740;DHT22;3407;49.882;10.920;2023-11-18T00:55:51;-0.20;1.00
6740;DHT22;3407;49.882;10.920;2023-11-18T01:00:47;0.00;1.00
6740;DHT22;3407;49.882;10.920;2023-11-18T01:05:42;0.10;1.00
6740;DHT22;3407;49.882;10.920;2023-11-18T01:10:38;0.10;1.00
6740;DHT22;3407;49.882;10.920;2023-11-18T01:15:33;0.10;1.00
6740;DHT22;3407;49.882;10.920;2023-11-18T01:20:29;0.20;1.00
6740;DHT22;3407;49.882;10.920;2023-11-18T01:25:24;0.30;1.00
6740;DHT22;3407;49.882;10.920;2023-11-18T01:30:20;0.30;1.00
6740;DHT22;3407;49.882;10.920;2023-11-18T01:35:16;0.30;1.00
6740;DHT22;3407;49.882;10.920;2023-11-18T01:40:12;0.30;1.00
6740;DHT22;3407;49.882;10.920;2023-11-18T01:45:08;0.30;1.00
6740;DHT22;3407;49.882;10.920;2023-11-18T01:50:09;0.40;1.00
6740;DHT22;3407;49.882;10.920;2023-11-18T01:55:07;0.80;1.00
6740;DHT22;3407;49.882;10.920;2023-11-18T02:00:03;0.40;1.00
6740;DHT22;3407;49.882;10.920;2023-11-18T02:05:01;0.40;1.00
6740;DHT22;3407;49.882;10.920;2023-11-18T02:09:57;0.50;1.00
6740;DHT22;3407;49.882;10.920;2023-11-18T02:14:53;0.50;1.00
6740;DHT22;3407;49.882;10.920;2023-11-18T02:19:52;0.50;1.00
6740;DHT22;3407;49.882;10.920;2023-11-18T02:24:48;0.50;1.00
6740;DHT22;3407;49.882;10.920;2023-11-18T02:29:45;0.50;1.00
6740;DHT22;3407;49.882;10.920;2023-11-18T02:34:56;0.50;1.00
6740;DHT22;3407;49.882;10.920;2023-11-18T02:39:59;0.50;1.00
6740;DHT22;3407;49.882;10.920;2023-11-18T02:44:57;0.50;1.00
6740;DHT22;3407;49.882;10.920;2023-11-18T02:49:55;0.20;1.00
6740;DHT22;3407;49.882;10.920;2023-11-18T02:55:00;-0.10;1.00
6740;DHT22;3407;49.882;10.920;2023-11-18T02:59:56;-0.30;1.00
6740;DHT22;3407;49.882;10.920;2023-11-18T03:04:53;-0.40;1.00
6740;DHT22;3407;49.882;10.920;2023-11-18T03:09:49;-0.40;1.00
6740;DHT22;3407;49.882;10.920;2023-11-18T03:14:44;-0.40;1.00
6740;DHT22;3407;49.882;10.920;2023-11-18T03:19:40;-0.40;1.00
6740;DHT22;3407;49.882;10.920;2023-11-18T03:24:36;-0.40;1.00
6740;DHT22;3407;49.882;10.920;2023-11-18T03:29:32;-0.40;1.00
6740;DHT22;3407;49.882;10.920;2023-11-18T03:34:27;-0.40;1.00
6740;DHT22;3407;49.882;10.920;2023-11-18T03:39:23;-0.40;1.00
6740;DHT22;3407;49.882;10.920;2023-11-18T03:44:18;-0.30;1.00
6740;DHT22;3407;49.882;10.920;2023-11-18T03:49:14;-0.30;1.00
6740;DHT22;3407;49.882;10.920;2023-11-18T03:54:09;-0.10;1.00
6740;DHT22;3407;49.882;10.920;2023-11-18T03:59:05;-0.10;1.00
6740;DHT22;3407;49.882;10.920;2023-11-18T04:04:00;0.00;1.00
6740;DHT22;3407;49.882;10.920;2023-11-18T04:08:56;0.10;1.00
6740;DHT22;3407;49.882;10.920;2023-11-18T04:13:51;0.00;1.00
6740;DHT22;3407;49.882;10.920;2023-11-18T04:18:47;0.00;1.00
6740;DHT22;3407;49.882;10.920;2023-11-18T04:23:43;-0.10;1.00
6740;DHT22;3407;49.882;10.920;2023-11-18T04:28:41;-0.30;1.00
6740;DHT22;3407;49.882;10.920;2023-11-18T04:33:37;-0.30;1.00
6740;DHT22;3407;49.882;10.920;2023-11-18T04:38:32;-0.30;1.00
6740;DHT22;3407;49.882;10.920;2023-11-18T04:43:29;-0.20;1.00
6740;DHT22;3407;49.882;10.920;2023-11-18T04:48:25;-0.20;1.00
6740;DHT22;3407;49.882;10.920;2023-11-18T04:53:21;-0.30;1.00
6740;DHT22;3407;49.882;10.920;2023-11-18T04:58:16;-0.40;1.00
6740;DHT22;3407;49.882;10.920;2023-11-18T05:03:12;-0.30;1.00
6740;DHT22;3407;49.882;10.920;2023-11-18T05:08:18;-0.20;1.00
6740;DHT22;3407;49.882;10.920;2023-11-18T05:13:14;-0.30;1.00
6740;DHT22;3407;49.882;10.920;2023-11-18T05:18:12;-0.30;1.00
6740;DHT22;3407;49.882;10.920;2023-11-18T05:23:10;-0.40;1.00
6740;DHT22;3407;49.882;10.920;2023-11-18T05:28:06;-0.50;1.00
6740;DHT22;3407;49.882;10.920;2023-11-18T05:33:04;-0.60;1.00
6740;DHT22;3407;49.882;10.920;2023-11-18T05:38:01;-0.60;1.00
6740;DHT22;3407;49.882;10.920;2023-11-18T05:42:58;-0.70;1.00
6740;DHT22;3407;49.882;10.920;2023-11-18T05:47:55;-0.70;1.00
6740;DHT22;3407;49.882;10.920;2023-11-18T05:52:51;-0.70;1.00
6740;DHT22;3407;49.882;10.920;2023-11-18T05:57:48;-0.70;1.00
6740;DHT22;3407;49.882;10.920;2023-11-18T06:02:43;-0.70;1.00
6740;DHT22;3407;49.882;10.920;2023-11-18T06:07:39;-0.60;1.00
6740;DHT22;3407;49.882;10.920;2023-11-18T06:12:38;-0.50;1.00
6740;DHT22;3407;49.882;10.920;2023-11-18T06:17:36;-0.40;1.00
6740;DHT22;3407;49.882;10.920;2023-11-18T06:22:32;-0.50;1.00
6740;DHT22;3407;49.882;10.920;2023-11-18T06:27:28;-0.50;1.00
6740;DHT22;3407;49.882;10.920;2023-11-18T06:32:25;-0.50;1.00
6740;DHT22;3407;49.882;10.920;2023-11-18T06:37:24;-0.50;1.00
6740;DHT22;3407;49.882;10.920;2023-11-18T06:42:19;-0.60;1.00
6740;DHT22;3407;49.882;10.920;2023-11-18T06:47:15;-0.70;1.00
6740;DHT22;3407;49.882;10.920;2023-11-18T06:52:13;-0.80;1.00
6740;DHT22;3407;49.882;10.920;2023-11-18T06:57:09;-0.80;1.00
6740;DHT22;3407;49.882;10.920;2023-11-18T07:02:05;-0.70;1.00
6740;DHT22;3407;49.882;10.920;2023-11-18T07:07:01;-0.80;1.00
6740;DHT22;3407;49.882;10.920;2023-11-18T07:11:57;-0.80;1.00
6740;DHT22;3407;49.882;10.920;2023-11-18T07:16:52;-0.80;1.00
6740;DHT22;3407;49.882;10.920;2023-11-18T07:21:49;-0.60;1.00
6740;DHT22;3407;49.882;10.920;2023-11-18T07:26:45;-0.50;1.00
6740;DHT22;3407;49.882;10.920;2023-11-18T07:31:40;-0.50;1.00
6740;DHT22;3407;49.882;10.920;2023-11-18T07:36:37;-0.40;1.00
6740;DHT22;3407;49.882;10.920;2023-11-18T07:41:32;-0.30;1.00
6740;DHT22;3407;49.882;10.920;2023-11-18T07:46:28;0.00;1.00
6740;DHT22;3407;49.882;10.920;2023-11-18T07:51:25;0.40;1.00
6740;DHT22;3407;49.882;10.920;2023-11-18T07:56:21;0.40;1.00
6740;DHT22;3407;49.882;10.920;2023-11-18T08:01:19;0.60;1.00
6740;DHT22;3407;49.882;10.920;2023-11-18T08:06:16;0.80;1.00
6740;DHT22;3407;49.882;10.920;2023-11-18T08:11:12;1.00;1.00
6740;DHT22;3407;49.882;10.920;2023-11-18T08:16:08;1.20;99.90
6740;DHT22;3407;49.882;10.920;2023-11-18T08:21:04;1.20;99.90
6740;DHT22;3407;49.882;10.920;2023-11-18T08:26:02;1.20;99.90
6740;DHT22;3407;49.882;10.920;2023-11-18T08:30:57;1.40;1.00
6740;DHT22;3407;49.882;10.920;2023-11-18T08:35:53;1.70;1.00
6740;DHT22;3407;49.882;10.920;2023-11-18T08:40:48;1.90;99.90
6740;DHT22;3407;49.882;10.920;2023-11-18T08:45:46;2.00;99.90
6740;DHT22;3407;49.882;10.920;2023-11-18T08:50:42;2.10;1.00
6740;DHT22;3407;49.882;10.920;2023-11-18T08:55:38;2.10;1.00
6740;DHT22;3407;49.882;10.920;2023-11-18T09:00:47;2.10;1.00
6740;DHT22;3407;49.882;10.920;2023-11-18T09:06:05;2.10;1.00
6740;DHT22;3407;49.882;10.920;2023-11-18T09:11:02;2.10;1.00
6740;DHT22;3407;49.882;10.920;2023-11-18T09:16:04;2.30;98.90
6740;DHT22;3407;49.882;10.920;2023-11-18T09:21:06;2.20;99.90
6740;DHT22;3407;49.882;10.920;2023-11-18T09:26:02;2.10;1.00
6740;DHT22;3407;49.882;10.920;2023-11-18T09:31:03;2.00;1.00
6740;DHT22;3407;49.882;10.920;2023-11-18T09:36:03;2.20;99.90
6740;DHT22;3407;49.882;10.920;2023-11-18T09:41:04;2.30;1.00
6740;DHT22;3407;49.882;10.920;2023-11-18T09:46:07;2.70;1.00
6740;DHT22;3407;49.882;10.920;2023-11-18T09:51:08;3.20;52.00
6740;DHT22;3407;49.882;10.920;2023-11-18T09:56:07;3.30;1.00
6740;DHT22;3407;49.882;10.920;2023-11-18T10:01:05;3.70;1.00
6740;DHT22;3407;49.882;10.920;2023-11-18T10:06:02;4.20;1.00
6740;DHT22;3407;49.882;10.920;2023-11-18T10:11:00;4.70;99.90
6740;DHT22;3407;49.882;10.920;2023-11-18T10:16:04;4.70;99.90
6740;DHT22;3407;49.882;10.920;2023-11-18T10:21:00;4.30;99.90
6740;DHT22;3407;49.882;10.920;2023-11-18T10:25:56;4.30;99.90
6740;DHT22;3407;49.882;10.920;2023-11-18T10:30:57;4.40;48.70
6740;DHT22;3407;49.882;10.920;2023-11-18T10:35:53;4.70;1.00
6740;DHT22;3407;49.882;10.920;2023-11-18T10:40:58;4.90;1.00
6740;DHT22;3407;49.882;10.920;2023-11-18T10:46:07;5.10;1.00
6740;DHT22;3407;49.882;10.920;2023-11-18T10:51:13;5.40;1.00
6740;DHT22;3407;49.882;10.920;2023-11-18T10:56:16;5.70;1.00
6740;DHT22;3407;49.882;10.920;2023-11-18T11:01:15;5.50;98.40
6740;DHT22;3407;49.882;10.920;2023-11-18T11:06:16;5.30;1.00
6740;DHT22;3407;49.882;10.920;2023-11-18T11:11:16;5.40;1.00
6740;DHT22;3407;49.882;10.920;2023-11-18T11:16:17;5.40;99.90
6740;DHT22;3407;49.882;10.920;2023-11-18T11:21:15;5.50;1.00
6740;DHT22;3407;49.882;10.920;2023-11-18T11:31:21;5.90;1.00
6740;DHT22;3407;49.882;10.920;2023-11-18T11:36:21;6.00;99.90
6740;DHT22;3407;49.882;10.920;2023-11-18T11:41:23;6.10;1.00
6740;DHT22;3407;49.882;10.920;2023-11-18T11:46:26;6.30;1.00
6740;DHT22;3407;49.882;10.920;2023-11-18T11:51:37;6.60;99.90
6740;DHT22;3407;49.882;10.920;2023-11-18T11:56:44;6.70;1.00
6740;DHT22;3407;49.882;10.920;2023-11-18T12:01:42;6.80;99.90
6740;DHT22;3407;49.882;10.920;2023-11-18T12:06:42;6.80;1.00
6740;DHT22;3407;49.882;10.920;2023-11-18T12:11:40;6.60;21.50
6740;DHT22;3407;49.882;10.920;2023-11-18T12:17:01;6.60;45.20
6740;DHT22;3407;49.882;10.920;2023-11-18T12:22:03;6.40;2.70
6740;DHT22;3407;49.882;10.920;2023-11-18T12:27:09;6.30;1.00
6740;DHT22;3407;49.882;10.920;2023-11-18T12:32:08;6.30;1.00
6740;DHT22;3407;49.882;10.920;2023-11-18T12:47:49;6.60;99.90
6740;DHT22;3407;49.882;10.920;2023-11-18T12:52:47;6.80;99.90
6740;DHT22;3407;49.882;10.920;2023-11-18T12:57:53;6.90;1.00
6740;DHT22;3407;49.882;10.920;2023-11-18T13:02:51;7.00;38.50
6740;DHT22;3407;49.882;10.920;2023-11-18T13:07:47;7.10;1.00
6740;DHT22;3407;49.882;10.920;2023-11-18T13:12:43;6.90;1.00
6740;DHT22;3407;49.882;10.920;2023-11-18T13:17:40;6.90;1.00
6740;DHT22;3407;49.882;10.920;2023-11-18T13:22:36;7.00;99.90
6740;DHT22;3407;49.882;10.920;2023-11-18T13:27:31;7.20;1.00
6740;DHT22;3407;49.882;10.920;2023-11-18T13:32:28;7.30;1.00
6740;DHT22;3407;49.882;10.920;2023-11-18T13:37:23;7.20;5.10
6740;DHT22;3407;49.882;10.920;2023-11-18T13:42:21;7.10;99.90
6740;DHT22;3407;49.882;10.920;2023-11-18T13:47:18;7.20;99.90
6740;DHT22;3407;49.882;10.920;2023-11-18T13:52:14;7.00;1.00
6740;DHT22;3407;49.882;10.920;2023-11-18T13:57:12;6.90;99.90
6740;DHT22;3407;49.882;10.920;2023-11-18T14:02:07;6.70;99.90
6740;DHT22;3407;49.882;10.920;2023-11-18T14:07:04;6.50;99.90
6740;DHT22;3407;49.882;10.920;2023-11-18T14:12:00;6.40;1.00
6740;DHT22;3407;49.882;10.920;2023-11-18T14:16:57;6.30;99.90
6740;DHT22;3407;49.882;10.920;2023-11-18T14:21:54;6.20;99.90
6740;DHT22;3407;49.882;10.920;2023-11-18T14:26:50;6.10;99.90
6740;DHT22;3407;49.882;10.920;2023-11-18T14:31:46;6.00;1.00
6740;DHT22;3407;49.882;10.920;2023-11-18T14:36:41;5.90;1.00
6740;DHT22;3407;49.882;10.920;2023-11-18T14:41:37;5.90;1.00
6740;DHT22;3407;49.882;10.920;2023-11-18T14:46:33;5.80;1.00
6740;DHT22;3407;49.882;10.920;2023-11-18T14:51:28;5.70;1.00
6740;DHT22;3407;49.882;10.920;2023-11-18T14:56:24;5.70;1.00
6740;DHT22;3407;49.882;10.920;2023-11-18T15:01:19;5.60;1.00
6740;DHT22;3407;49.882;10.920;2023-11-18T15:06:24;5.50;1.00
6740;DHT22;3407;49.882;10.920;2023-11-18T15:11:23;5.40;1.00
6740;DHT22;3407;49.882;10.920;2023-11-18T15:16:19;5.40;1.00
6740;DHT22;3407;49.882;10.920;2023-11-18T15:21:15;5.30;1.00
6740;DHT22;3407;49.882;10.920;2023-11-18T15:26:10;5.30;1.00
6740;DHT22;3407;49.882;10.920;2023-11-18T15:31:06;5.20;1.00
6740;DHT22;3407;49.882;10.920;2023-11-18T15:36:01;5.10;1.00
6740;DHT22;3407;49.882;10.920;2023-11-18T15:40:57;5.10;1.00
6740;DHT22;3407;49.882;10.920;2023-11-18T15:45:53;5.10;1.00
6740;DHT22;3407;49.882;10.920;2023-11-18T15:50:51;5.10;1.00
6740;DHT22;3407;49.882;10.920;2023-11-18T15:55:47;5.10;1.00
6740;DHT22;3407;49.882;10.920;2023-11-18T16:00:42;5.10;1.00
6740;DHT22;3407;49.882;10.920;2023-11-18T16:05:38;5.10;1.00
6740;DHT22;3407;49.882;10.920;2023-11-18T16:10:35;5.10;1.00
6740;DHT22;3407;49.882;10.920;2023-11-18T16:15:33;5.10;1.00
6740;DHT22;3407;49.882;10.920;2023-11-18T16:20:30;5.10;1.00
6740;DHT22;3407;49.882;10.920;2023-11-18T16:25:27;5.10;1.00
6740;DHT22;3407;49.882;10.920;2023-11-18T16:30:23;5.20;1.00
6740;DHT22;3407;49.882;10.920;2023-11-18T16:35:20;5.10;1.00
6740;DHT22;3407;49.882;10.920;2023-11-18T16:40:17;5.00;1.00
6740;DHT22;3407;49.882;10.920;2023-11-18T16:45:15;4.80;1.00
6740;DHT22;3407;49.882;10.920;2023-11-18T16:50:12;4.80;1.00
6740;DHT22;3407;49.882;10.920;2023-11-18T16:55:08;4.90;1.00
6740;DHT22;3407;49.882;10.920;2023-11-18T17:00:05;4.90;1.00
6740;DHT22;3407;49.882;10.920;2023-11-18T17:05:10;5.00;1.00
6740;DHT22;3407;49.882;10.920;2023-11-18T17:10:06;5.10;1.00
6740;DHT22;3407;49.882;10.920;2023-11-18T17:15:03;5.10;1.00
6740;DHT22;3407;49.882;10.920;2023-11-18T17:19:58;5.10;1.00
6740;DHT22;3407;49.882;10.920;2023-11-18T17:24:54;5.20;2.80
6740;DHT22;3407;49.882;10.920;2023-11-18T17:29:50;5.20;4.60
6740;DHT22;3407;49.882;10.920;2023-11-18T17:34:45;5.10;2.30
6740;DHT22;3407;49.882;10.920;2023-11-18T17:39:41;5.10;4.70
6740;DHT22;3407;49.882;10.920;2023-11-18T17:44:36;5.10;9.00
6740;DHT22;3407;49.882;10.920;2023-11-18T17:49:32;5.10;14.10
6740;DHT22;3407;49.882;10.920;2023-11-18T17:54:28;5.10;15.30
6740;DHT22;3407;49.882;10.920;2023-11-18T17:59:23;5.20;17.40
6740;DHT22;3407;49.882;10.920;2023-11-18T18:04:19;5.20;21.20
6740;DHT22;3407;49.882;10.920;2023-11-18T18:09:15;5.20;24.90
6740;DHT22;3407;49.882;10.920;2023-11-18T18:14:12;5.30;26.30
6740;DHT22;3407;49.882;10.920;2023-11-18T18:19:07;5.30;26.60
6740;DHT22;3407;49.882;10.920;2023-11-18T18:24:03;5.40;28.20
6740;DHT22;3407;49.882;10.920;2023-11-18T18:28:59;5.30;23.30
6740;DHT22;3407;49.882;10.920;2023-11-18T18:33:54;5.30;19.80
6740;DHT22;3407;49.882;10.920;2023-11-18T18:38:50;5.20;21.10
6740;DHT22;3407;49.882;10.920;2023-11-18T18:43:46;5.20;26.50
6740;DHT22;3407;49.882;10.920;2023-11-18T18:48:41;5.30;29.50
6740;DHT22;3407;49.882;10.920;2023-11-18T18:53:37;5.30;31.00
6740;DHT22;3407;49.882;10.920;2023-11-18T18:58:32;5.40;27.10
6740;DHT22;3407;49.882;10.920;2023-11-18T19:03:28;5.40;26.80
6740;DHT22;3407;49.882;10.920;2023-11-18T19:08:24;5.40;26.50
6740;DHT22;3407;49.882;10.920;2023-11-18T19:13:21;5.40;25.30
6740;DHT22;3407;49.882;10.920;2023-11-18T19:18:17;5.40;25.60
6740;DHT22;3407;49.882;10.920;2023-11-18T19:23:12;5.40;26.90
6740;DHT22;3407;49.882;10.920;2023-11-18T19:28:08;5.40;29.90
6740;DHT22;3407;49.882;10.920;2023-11-18T19:33:05;5.30;30.00
6740;DHT22;3407;49.882;10.920;2023-11-18T19:38:01;5.40;37.20
6740;DHT22;3407;49.882;10.920;2023-11-18T19:42:58;5.40;37.80
6740;DHT22;3407;49.882;10.920;2023-11-18T19:47:54;5.40;41.10
6740;DHT22;3407;49.882;10.920;2023-11-18T19:52:49;5.40;43.30
6740;DHT22;3407;49.882;10.920;2023-11-18T19:57:45;5.40;45.30
6740;DHT22;3407;49.882;10.920;2023-11-18T20:02:42;5.40;48.20
6740;DHT22;3407;49.882;10.920;2023-11-18T20:07:39;5.40;48.70
6740;DHT22;3407;49.882;10.920;2023-11-18T20:12:34;5.40;50.20
6740;DHT22;3407;49.882;10.920;2023-11-18T20:17:31;5.40;48.70
6740;DHT22;3407;49.882;10.920;2023-11-18T20:22:27;5.40;50.10
6740;DHT22;3407;49.882;10.920;2023-11-18T20:27:23;5.30;50.50
6740;DHT22;3407;49.882;10.920;2023-11-18T20:32:18;5.30;52.80
6740;DHT22;3407;49.882;10.920;2023-11-18T20:37:14;5.30;56.60
6740;DHT22;3407;49.882;10.920;2023-11-18T20:42:09;5.30;57.70
6740;DHT22;3407;49.882;10.920;2023-11-18T20:47:05;5.30;58.60
6740;DHT22;3407;49.882;10.920;2023-11-18T20:52:02;5.30;59.70
6740;DHT22;3407;49.882;10.920;2023-11-18T20:56:59;5.30;59.70
6740;DHT22;3407;49.882;10.920;2023-11-18T21:01:55;5.20;60.00
6740;DHT22;3407;49.882;10.920;2023-11-18T21:06:51;5.30;62.50
6740;DHT22;3407;49.882;10.920;2023-11-18T21:11:47;5.30;63.20
6740;DHT22;3407;49.882;10.920;2023-11-18T21:16:42;5.30;64.40
6740;DHT22;3407;49.882;10.920;2023-11-18T21:21:38;5.30;64.40
6740;DHT22;3407;49.882;10.920;2023-11-18T21:26:34;5.30;64.60
6740;DHT22;3407;49.882;10.920;2023-11-18T21:31:30;5.30;64.60
6740;DHT22;3407;49.882;10.920;2023-11-18T21:36:25;5.30;65.00
6740;DHT22;3407;49.882;10.920;2023-11-18T21:41:21;5.30;66.10
6740;DHT22;3407;49.882;10.920;2023-11-18T21:46:16;5.30;67.10
6740;DHT22;3407;49.882;10.920;2023-11-18T21:51:12;5.30;67.90
6740;DHT22;3407;49.882;10.920;2023-11-18T21:56:09;5.40;68.90
6740;DHT22;3407;49.882;10.920;2023-11-18T22:01:04;5.40;69.20
6740;DHT22;3407;49.882;10.920;2023-11-18T22:06:01;5.40;69.20
6740;DHT22;3407;49.882;10.920;2023-11-18T22:10:56;5.40;69.40
6740;DHT22;3407;49.882;10.920;2023-11-18T22:15:53;5.40;70.40
6740;DHT22;3407;49.882;10.920;2023-11-18T22:20:50;5.50;70.10
6740;DHT22;3407;49.882;10.920;2023-11-18T22:25:45;5.50;69.90
6740;DHT22;3407;49.882;10.920;2023-11-18T22:30:43;5.40;69.70
6740;DHT22;3407;49.882;10.920;2023-11-18T22:35:40;5.50;70.10
6740;DHT22;3407;49.882;10.920;2023-11-18T22:40:36;5.50;70.30
6740;DHT22;3407;49.882;10.920;2023-11-18T22:45:32;5.50;70.40
6740;DHT22;3407;49.882;10.920;2023-11-18T22:50:28;5.50;70.70
6740;DHT22;3407;49.882;10.920;2023-11-18T22:55:23;5.50;70.70
6740;DHT22;3407;49.882;10.920;2023-11-18T23:00:19;5.50;70.90
6740;DHT22;3407;49.882;10.920;2023-11-18T23:05:30;5.50;70.90
6740;DHT22;3407;49.882;10.920;2023-11-18T23:10:27;5.50;70.80
6740;DHT22;3407;49.882;10.920;2023-11-18T23:15:22;5.50;70.90
6740;DHT22;3407;49.882;10.920;2023-11-18T23:20:19;5.50;71.00
6740;DHT22;3407;49.882;10.920;2023-11-18T23:25:16;5.50;71.00
6740;DHT22;3407;49.882;10.920;2023-11-18T23:30:12;5.50;70.60
6740;DHT22;3407;49.882;10.920;2023-11-18T23:35:08;5.50;70.50
6740;DHT22;3407;49.882;10.920;2023-11-18T23:40:07;5.50;70.70
6740;DHT22;3407;49.882;10.920;2023-11-18T23:45:06;5.50;70.90
6740;DHT22;3407;49.882;10.920;2023-11-18T23:50:02;5.50;71.00
6740;DHT22;3407;49.882;10.920;2023-11-18T23:54:58;5.50;71.00
6740;DHT22;3407;49.882;10.920;2023-11-18T23:59:53;5.50;70.90
